createdAt,value
2023-02-03T00:03:54.431Z,93.87835
2023-02-03T00:08:56.155Z,94.2439
2023-02-03T00:13:57.898Z,94.61125
2023-02-03T00:18:59.361Z,94.98039
2023-02-03T00:24:00.889Z,94.98039
2023-02-03T00:29:02.586Z,94.98039
2023-02-03T00:34:04.329Z,94.98039
2023-02-03T00:39:05.814Z,94.98039
2023-02-03T00:44:07.568Z,95.72414
2023-02-03T00:49:09.239Z,94.98039
2023-02-03T00:54:11.042Z,94.61125
2023-02-03T00:59:12.848Z,94.98039
2023-02-03T01:04:14.426Z,96.09877
2023-02-03T01:09:15.942Z,96.09877
2023-02-03T01:14:17.428Z,96.8536
2023-02-03T01:19:19.117Z,96.09877
2023-02-03T01:24:20.910Z,95.35135
2023-02-03T01:29:22.607Z,95.35135
2023-02-03T01:34:24.443Z,95.35135
2023-02-03T01:39:26.156Z,95.72414
2023-02-03T01:44:27.713Z,96.47525
2023-02-03T01:49:29.303Z,96.8536
2023-02-03T01:54:30.803Z,99.16373
2023-02-03T01:59:32.465Z,99.55556
2023-02-03T02:04:33.956Z,99.16373
2023-02-03T02:09:35.667Z,99.94937
2023-02-03T02:14:37.176Z,99.16373
2023-02-03T02:19:38.935Z,98.77387
2023-02-03T02:24:40.454Z,97.61596
2023-02-03T02:29:42.080Z,98
2023-02-03T02:34:43.536Z,98.77387
2023-02-03T02:39:45.463Z,99.55556
2023-02-03T02:44:47.139Z,99.16373
2023-02-03T02:49:48.626Z,98.77387
2023-02-03T02:54:50.309Z,98.77387
2023-02-03T02:59:52.076Z,99.94937
2023-02-03T03:04:53.602Z,99.55556
2023-02-03T03:09:55.801Z,99.55556
2023-02-03T03:14:57.258Z,101.54476
2023-02-03T03:19:58.923Z,103.58549
2023-02-03T03:25:01.027Z,103.58549
2023-02-03T03:30:03.177Z,103.58549
2023-02-03T03:35:05.144Z,104
2023-02-03T03:40:07.147Z,104
2023-02-03T03:45:09.037Z,104.83551
2023-02-03T03:50:11.030Z,105.25654
2023-02-03T03:55:13.082Z,107.39523
2023-02-03T04:00:15.068Z,107.82979
2023-02-03T04:05:16.553Z,106.96296
2023-02-03T04:10:18.512Z,108.26667
2023-02-03T04:15:20.548Z,106.10526
2023-02-03T04:20:22.309Z,105.67979
2023-02-03T04:25:24.276Z,106.53298
2023-02-03T04:30:26.818Z,106.53298
2023-02-03T04:35:28.573Z,106.53298
2023-02-03T04:40:30.392Z,104
2023-02-03T04:45:32.388Z,107.82979
2023-02-03T04:50:34.210Z,108.70588
2023-02-03T04:55:36.391Z,113.23077
2023-02-03T05:00:38.434Z,121.01149
2023-02-03T05:05:40.102Z,134.71207
2023-02-03T05:10:41.794Z,140.17834
2023-02-03T05:15:43.641Z,160.90141
2023-02-03T05:20:45.394Z,153.52381
2023-02-03T05:25:46.881Z,182.75969
2023-02-03T05:30:48.800Z,189.41833
2023-02-03T05:35:50.281Z,197.49794
2023-02-03T05:40:51.792Z,173.85075
2023-02-03T05:45:53.423Z,174.71161
2023-02-03T05:50:55.205Z,182.75969
2023-02-03T05:55:56.731Z,178.22053
2023-02-03T06:00:58.576Z,164
2023-02-03T06:06:00.396Z,173.85075
2023-02-03T06:11:02.430Z,162.43972
2023-02-03T06:16:04.245Z,154.9589
2023-02-03T06:21:05.922Z,138.32177
2023-02-03T06:26:07.758Z,131.80488
2023-02-03T06:31:09.771Z,163.21708
2023-02-03T06:36:11.590Z,155.68385
2023-02-03T06:41:13.661Z,157.14879
2023-02-03T06:46:15.273Z,160.14035
2023-02-03T06:51:16.736Z,172.99628
2023-02-03T06:56:18.443Z,155.68385
2023-02-03T07:01:20.525Z,161.66784
2023-02-03T07:06:22.315Z,164
2023-02-03T07:11:24.312Z,156.41379
2023-02-03T07:16:26.246Z,169.64103
2023-02-03T07:21:28.144Z,177.33333
2023-02-03T07:26:29.972Z,160.90141
2023-02-03T07:31:32.531Z,172.99628
2023-02-03T07:36:34.408Z,179.1145
2023-02-03T07:41:36.198Z,178.22053
2023-02-03T07:46:38.338Z,200.66667
2023-02-03T07:51:40.244Z,196.45902
2023-02-03T07:56:42.014Z,194.4065
2023-02-03T08:01:44.202Z,208.37768
2023-02-03T08:06:46.067Z,188.44444
2023-02-03T08:11:47.636Z,211.82609
2023-02-03T08:16:49.095Z,212.99563
2023-02-03T08:21:50.579Z,201.74059
2023-02-03T08:26:52.504Z,220.23318
2023-02-03T08:31:54.334Z,215.36564
2023-02-03T08:36:56.074Z,211.82609
2023-02-03T08:41:57.918Z,212.99563
2023-02-03T08:46:59.507Z,224
2023-02-03T08:52:01.121Z,244.4878
2023-02-03T08:57:02.699Z,234.56604
2023-02-03T09:02:04.378Z,258.28571
2023-02-03T09:07:05.825Z,256.69036
2023-02-03T09:12:07.652Z,261.52577
2023-02-03T09:17:09.635Z,269.92593
2023-02-03T09:22:11.315Z,255.11111
2023-02-03T09:27:13.370Z,231.85047
2023-02-03T09:32:15.944Z,248.9505
2023-02-03T09:37:17.694Z,264.83333
2023-02-03T09:42:19.546Z,245.96078
2023-02-03T09:47:21.332Z,261.52577
2023-02-03T09:52:23.232Z,259.89744
2023-02-03T09:57:25.053Z,269.92593
2023-02-03T10:02:27.031Z,253.54774
2023-02-03T10:07:28.791Z,266.51309
2023-02-03T10:12:30.817Z,231.85047
2023-02-03T10:17:32.630Z,220.23318
2023-02-03T10:22:34.427Z,245.96078
2023-02-03T10:27:36.442Z,248.9505
2023-02-03T10:32:38.660Z,263.17098
2023-02-03T10:37:40.580Z,269.92593
2023-02-03T10:42:42.471Z,268.21053
2023-02-03T10:47:44.238Z,329
2023-02-03T10:52:46.075Z,278.78261
2023-02-03T10:57:47.787Z,264.83333
2023-02-03T11:02:50.424Z,271.65957
2023-02-03T11:07:51.919Z,312.86228
2023-02-03T11:12:53.519Z,351.94702
2023-02-03T11:17:55.214Z,294
2023-02-03T11:22:56.772Z,300.06936
2023-02-03T11:27:58.747Z,288.13408
2023-02-03T11:33:00.451Z,302.13953
2023-02-03T11:38:02.328Z,336.35669
2023-02-03T11:43:04.124Z,380.87943
2023-02-03T11:48:05.641Z,365.91781
2023-02-03T11:53:07.229Z,331.42138
2023-02-03T11:58:08.724Z,324.24691
2023-02-03T12:03:11.518Z,363.04762
2023-02-03T12:08:13.116Z,312.86228
2023-02-03T12:13:14.753Z,326.6087
2023-02-03T12:18:16.310Z,346.61438
2023-02-03T12:23:17.794Z,331.42138
2023-02-03T12:28:32.443Z,308.49704
2023-02-03T12:33:36.040Z,324.24691
2023-02-03T12:38:37.812Z,371.77778
2023-02-03T12:43:39.537Z,371.77778
2023-02-03T12:48:41.723Z,351.94702
2023-02-03T12:53:43.610Z,396.94118
2023-02-03T12:58:45.454Z,368.82759
2023-02-03T13:03:48.258Z,393.63504
2023-02-03T13:08:49.986Z,255.11111
2023-02-03T13:13:51.585Z,292.0226
2023-02-03T13:18:53.157Z,365.91781
2023-02-03T13:23:54.650Z,351.94702
2023-02-03T13:28:56.438Z,349.26316
2023-02-03T13:33:58.147Z,357.42282
2023-02-03T13:38:59.747Z,336.35669
2023-02-03T13:44:01.466Z,288.13408
2023-02-03T13:49:03.308Z,396.94118
2023-02-03T13:54:05.105Z,354.66667
2023-02-03T13:59:06.591Z,321.91411
2023-02-03T14:04:08.598Z,374.76923
2023-02-03T14:09:10.153Z,403.70149
2023-02-03T14:14:12.174Z,407.15789
2023-02-03T14:19:13.929Z,384
2023-02-03T14:24:15.831Z,393.63504
2023-02-03T14:29:17.616Z,371.77778
2023-02-03T14:34:19.987Z,390.37681
2023-02-03T14:39:21.852Z,331.42138
2023-02-03T14:44:23.885Z,357.42282
2023-02-03T14:49:26.139Z,331.42138
2023-02-03T14:54:27.940Z,346.61438
2023-02-03T14:59:29.912Z,324.24691
2023-02-03T15:04:31.940Z,331.42138
2023-02-03T15:09:33.857Z,341.41935
2023-02-03T15:14:36.655Z,321.91411
2023-02-03T15:19:38.438Z,317.33333
2023-02-03T15:24:40.533Z,288.13408
2023-02-03T15:29:42.483Z,333.87342
2023-02-03T15:34:45.306Z,341.41935
2023-02-03T15:39:47.426Z,333.87342
2023-02-03T15:44:49.169Z,288.13408
2023-02-03T15:49:50.606Z,256.69036
2023-02-03T15:54:52.110Z,253.54774
2023-02-03T15:59:53.863Z,263.17098
2023-02-03T16:04:55.564Z,275.1828
2023-02-03T16:09:57.026Z,275.1828
2023-02-03T16:14:58.603Z,273.41176
2023-02-03T16:20:00.136Z,248.9505
2023-02-03T16:25:01.833Z,235.94313
2023-02-03T16:30:04.200Z,243.02913
2023-02-03T16:35:06.381Z,237.33333
2023-02-03T16:40:08.571Z,231.85047
2023-02-03T16:45:10.515Z,222.73303
2023-02-03T16:50:12.330Z,221.47748
2023-02-03T16:55:14.438Z,210.66667
2023-02-03T17:00:16.460Z,198.54545
2023-02-03T17:05:18.453Z,202.82353
2023-02-03T17:10:20.177Z,184.625
2023-02-03T17:15:21.966Z,178.22053
2023-02-03T17:20:24.122Z,182.75969
2023-02-03T17:25:26.001Z,226.56881
2023-02-03T17:30:27.625Z,211.82609
2023-02-03T17:35:30.610Z,211.82609
2023-02-03T17:54:53.034Z,166.38267
2023-02-03T17:59:54.686Z,199.60166
2023-02-03T18:04:56.457Z,219
2023-02-03T18:09:58.263Z,212.99563
2023-02-03T18:14:59.797Z,212.99563
2023-02-03T18:20:01.666Z,209.51724
2023-02-03T18:25:03.316Z,219
2023-02-03T18:30:04.872Z,212.99563
2023-02-03T18:35:06.551Z,211.82609
2023-02-03T18:40:08.264Z,221.47748
2023-02-03T18:45:10.136Z,222.73303
2023-02-03T18:50:12.037Z,238.73684
2023-02-03T18:55:13.829Z,250.46766
2023-02-03T19:00:15.730Z,244.4878
2023-02-03T19:05:17.585Z,255.11111
2023-02-03T19:10:19.798Z,252
2023-02-03T19:15:21.310Z,255.11111
2023-02-03T19:20:22.770Z,252
2023-02-03T19:25:24.272Z,243.02913
2023-02-03T19:30:25.863Z,240.15385
2023-02-03T19:35:27.876Z,219
2023-02-03T19:40:30.288Z,207.24786
2023-02-03T19:45:32.317Z,214.17544
2023-02-03T19:50:34.148Z,210.66667
2023-02-03T19:55:35.823Z,211.82609
2023-02-03T20:00:37.625Z,209.51724
2023-02-03T20:05:39.458Z,212.99563
2023-02-03T20:10:41.434Z,200.66667
2023-02-03T20:15:43.269Z,192.3871
2023-02-03T20:20:45.169Z,191.38956
2023-02-03T20:25:46.772Z,192.3871
2023-02-03T20:30:48.601Z,189.41833
2023-02-03T20:35:50.511Z,179.1145
2023-02-03T20:40:52.739Z,184.625
2023-02-03T20:45:54.312Z,187.47826
2023-02-03T20:50:55.882Z,188.44444
2023-02-03T20:55:57.398Z,198.54545
2023-02-03T21:00:59.097Z,194.4065
2023-02-03T21:06:00.722Z,189.41833
2023-02-03T21:11:02.378Z,190.4
2023-02-03T21:16:04.157Z,194.4065
2023-02-03T21:21:05.756Z,194.4065
2023-02-03T21:26:07.430Z,200.66667
2023-02-03T21:31:09.248Z,196.45902
2023-02-03T21:36:11.317Z,196.45902
2023-02-03T21:41:13.378Z,195.42857
2023-02-03T21:46:15.334Z,197.49794
2023-02-03T21:51:17.413Z,194.4065
2023-02-03T21:56:19.388Z,185.56863
2023-02-03T22:01:21.569Z,184.625
2023-02-03T22:06:23.488Z,173.85075
2023-02-03T22:11:26.015Z,172.99628
2023-02-03T22:16:28.088Z,167.18841
2023-02-03T22:21:30.035Z,154.9589
2023-02-03T22:26:32.333Z,152.81356
2023-02-03T22:31:35.280Z,147.97351
2023-02-03T22:36:37.362Z,144
2023-02-03T22:41:39.672Z,144
2023-02-03T22:46:41.541Z,140.17834
2023-02-03T22:51:43.447Z,134.12346
2023-02-03T22:56:45.285Z,140.17834
2023-02-03T23:01:47.120Z,145.30719
2023-02-03T23:06:49.117Z,147.97351
2023-02-03T23:11:51.212Z,146.63158
2023-02-03T23:16:52.718Z,140.80511
2023-02-03T23:21:54.197Z,134.71207
2023-02-03T23:26:55.645Z,132.95706
2023-02-03T23:31:57.202Z,134.12346
2023-02-03T23:36:58.876Z,136.5
2023-02-03T23:42:01.399Z,142.70968
2023-02-03T23:47:03.095Z,143.35275
2023-02-03T23:52:05.231Z,140.17834
2023-02-03T23:57:06.714Z,137.71069
